Time;durP1;ratioP1;P1;durP2;ratioP2;P2;SDS_P1;SDS_P2;PMS_P1;PMS_P2;Temp;Humidity;BMP_temperature;BMP_pressure;BME280_temperature;BME280_humidity;BME280_pressure;Samples;Min_cycle;Max_cycle;Signal;HPM_P1;HPM_P2
2022/08/21 00:02:00;;;;;;;5.47;3.20;;;17.30;99.90;;;;;;5039136;28;20088;-35
2022/08/21 00:04:25;;;;;;;7.65;3.47;;;17.20;99.90;;;;;;5045404;28;20060;-34
2022/08/21 00:06:52;;;;;;;8.57;3.83;;;17.20;99.90;;;;;;5051378;28;20094;-34
2022/08/21 00:09:18;;;;;;;8.35;3.33;;;17.20;99.90;;;;;;5044727;28;20064;-34
2022/08/21 00:11:44;;;;;;;6.57;3.60;;;17.20;99.90;;;;;;5048296;28;20067;-34
2022/08/21 00:14:11;;;;;;;7.57;3.75;;;17.20;99.90;;;;;;5047908;28;20040;-34
2022/08/21 00:16:38;;;;;;;5.43;3.10;;;17.20;99.90;;;;;;5050243;28;20033;-34
2022/08/21 00:19:05;;;;;;;7.65;3.67;;;17.20;99.90;;;;;;5050175;28;20151;-34
2022/08/21 00:21:31;;;;;;;7.78;3.25;;;17.10;99.90;;;;;;5050447;28;20495;-34
2022/08/21 00:23:57;;;;;;;5.50;3.30;;;17.10;99.90;;;;;;5050523;28;20090;-35
2022/08/21 00:26:22;;;;;;;7.18;3.42;;;17.10;99.90;;;;;;5045799;28;20052;-35
2022/08/21 00:28:48;;;;;;;5.07;2.67;;;17.00;99.90;;;;;;5051076;28;20119;-44
2022/08/21 00:31:15;;;;;;;6.70;3.72;;;17.00;99.90;;;;;;5047164;28;20088;-35
2022/08/21 00:33:41;;;;;;;6.35;3.72;;;16.90;99.90;;;;;;5047000;28;20567;-34
2022/08/21 00:36:07;;;;;;;7.28;3.13;;;16.90;99.90;;;;;;5048003;28;20059;-35
2022/08/21 00:38:33;;;;;;;4.97;3.47;;;16.90;99.90;;;;;;5049055;28;20554;-34
2022/08/21 00:41:05;;;;;;;5.55;2.92;;;16.80;99.90;;;;;;5048916;28;20069;-34
2022/08/21 00:43:34;;;;;;;5.43;3.55;;;16.70;99.90;;;;;;5045683;28;20033;-34
2022/08/21 00:46:01;;;;;;;6.20;3.22;;;16.60;99.90;;;;;;5045661;28;20037;-35
2022/08/21 00:48:27;;;;;;;6.22;4.00;;;16.60;99.90;;;;;;5046364;28;20052;-34
2022/08/21 00:50:57;;;;;;;8.30;3.50;;;16.50;99.90;;;;;;5042946;28;20040;-34
2022/08/21 00:53:24;;;;;;;6.03;3.67;;;16.50;99.90;;;;;;5048588;28;20040;-34
2022/08/21 00:55:50;;;;;;;10.05;3.80;;;16.40;99.90;;;;;;5048296;28;20040;-34
2022/08/21 00:58:17;;;;;;;6.90;3.70;;;16.30;99.90;;;;;;5047412;28;20055;-34
2022/08/21 01:00:45;;;;;;;5.60;3.28;;;16.30;99.90;;;;;;5047284;28;20044;-35
2022/08/21 01:03:15;;;;;;;4.97;3.00;;;16.30;99.90;;;;;;5042115;28;20049;-34
2022/08/21 01:05:42;;;;;;;4.82;3.38;;;16.30;99.90;;;;;;5045689;28;20550;-33
2022/08/21 01:08:08;;;;;;;6.05;3.70;;;16.30;99.90;;;;;;5046823;28;20102;-34
2022/08/21 01:10:36;;;;;;;7.05;3.58;;;16.20;99.90;;;;;;5046658;28;20060;-34
2022/08/21 01:13:06;;;;;;;6.15;3.15;;;16.20;99.90;;;;;;5045595;28;20049;-33
2022/08/21 01:15:35;;;;;;;6.10;3.33;;;16.10;99.90;;;;;;5047287;28;20549;-33
2022/08/21 01:18:04;;;;;;;6.45;2.97;;;16.10;99.90;;;;;;5043162;28;20506;-35
2022/08/21 01:20:30;;;;;;;5.47;3.70;;;16.20;99.90;;;;;;5045605;28;20049;-34
2022/08/21 01:22:55;;;;;;;5.35;3.10;;;16.20;99.90;;;;;;5044071;28;20028;-34
2022/08/21 01:25:21;;;;;;;10.45;3.72;;;16.20;99.90;;;;;;5042608;28;20632;-34
2022/08/21 01:27:47;;;;;;;6.05;2.97;;;16.20;99.90;;;;;;5043092;28;20083;-34
2022/08/21 01:30:17;;;;;;;9.55;3.50;;;16.20;99.90;;;;;;5044183;28;20045;-35
2022/08/21 01:32:43;;;;;;;6.65;3.38;;;16.20;99.90;;;;;;5048550;28;20524;-34
2022/08/21 01:35:11;;;;;;;6.72;3.67;;;16.10;99.90;;;;;;5045217;28;20041;-36
2022/08/21 01:37:36;;;;;;;7.90;3.75;;;16.20;99.90;;;;;;5046653;28;20032;-34
2022/08/21 01:40:04;;;;;;;4.85;2.67;;;16.10;99.90;;;;;;5046800;28;20045;-35
2022/08/21 01:42:30;;;;;;;5.50;3.08;;;16.10;99.90;;;;;;5047497;28;20068;-33
2022/08/21 01:44:56;;;;;;;7.90;3.40;;;16.10;99.90;;;;;;5047418;28;20033;-34
2022/08/21 01:47:22;;;;;;;6.95;3.30;;;16.10;99.90;;;;;;5041944;28;20518;-35
2022/08/21 01:49:48;;;;;;;5.55;3.42;;;16.00;99.90;;;;;;5046565;28;20444;-33
2022/08/21 01:52:13;;;;;;;7.55;3.38;;;16.00;99.90;;;;;;5045841;28;20114;-42
2022/08/21 01:54:39;;;;;;;7.65;3.78;;;15.90;99.90;;;;;;5049622;28;20501;-34
2022/08/21 01:57:06;;;;;;;7.13;3.58;;;15.90;99.90;;;;;;5043704;28;20045;-34
2022/08/21 01:59:33;;;;;;;3.75;2.88;;;15.90;99.90;;;;;;5047106;28;20497;-34
2022/08/21 02:01:59;;;;;;;6.63;3.08;;;15.90;99.90;;;;;;5046837;28;20218;-34
2022/08/21 02:04:25;;;;;;;7.03;3.75;;;15.80;99.90;;;;;;5046238;28;20116;-34
2022/08/21 02:06:51;;;;;;;7.47;3.13;;;15.90;99.90;;;;;;5047348;28;20465;-34
2022/08/21 02:09:18;;;;;;;5.95;3.00;;;15.90;99.90;;;;;;5046480;28;20048;-34
2022/08/21 02:11:43;;;;;;;6.93;2.90;;;15.80;99.90;;;;;;5046770;28;20127;-35
2022/08/21 02:14:14;;;;;;;6.18;3.50;;;15.90;99.90;;;;;;5045875;28;20112;-34
2022/08/21 02:16:41;;;;;;;7.20;3.70;;;15.90;99.90;;;;;;5045449;28;20394;-34
2022/08/21 02:19:08;;;;;;;5.53;4.10;;;15.90;99.90;;;;;;5048041;28;20076;-34
2022/08/21 02:21:33;;;;;;;6.07;3.55;;;15.80;99.90;;;;;;5046370;28;20514;-34
2022/08/21 02:24:00;;;;;;;6.65;3.78;;;15.90;99.90;;;;;;5047622;28;20036;-35
2022/08/21 02:26:25;;;;;;;5.82;3.40;;;15.90;99.90;;;;;;5047944;28;20060;-34
2022/08/21 02:28:52;;;;;;;6.28;4.20;;;15.80;99.90;;;;;;5049385;28;20406;-34
2022/08/21 02:31:17;;;;;;;6.85;3.90;;;15.80;99.90;;;;;;5041221;28;20048;-34
2022/08/21 02:33:43;;;;;;;8.63;4.40;;;15.80;99.90;;;;;;5047894;28;20037;-34
2022/08/21 02:36:10;;;;;;;8.75;4.13;;;15.80;99.90;;;;;;5043958;28;20043;-35
2022/08/21 02:38:38;;;;;;;10.18;4.10;;;15.70;99.90;;;;;;5048062;28;20036;-34
2022/08/21 02:41:07;;;;;;;7.97;4.32;;;15.80;99.90;;;;;;5043507;28;20052;-35
2022/08/21 02:43:33;;;;;;;4.68;3.35;;;15.70;99.90;;;;;;5046958;28;20033;-34
2022/08/21 02:46:00;;;;;;;5.95;3.80;;;15.60;99.90;;;;;;5047049;28;20127;-34
2022/08/21 02:48:30;;;;;;;6.82;3.83;;;15.60;99.90;;;;;;5046560;28;20037;-34
2022/08/21 02:50:58;;;;;;;8.07;3.63;;;15.60;99.90;;;;;;5045285;28;20036;-34
2022/08/21 02:53:25;;;;;;;7.78;4.22;;;15.60;99.90;;;;;;5047035;28;20592;-34
2022/08/21 02:55:52;;;;;;;7.15;3.80;;;15.50;99.90;;;;;;5041858;28;20132;-34
2022/08/21 02:58:24;;;;;;;7.22;3.75;;;15.50;99.90;;;;;;5044584;28;20029;-34
2022/08/21 03:00:51;;;;;;;7.10;3.85;;;15.50;99.90;;;;;;5047705;28;20524;-34
2022/08/21 03:03:17;;;;;;;7.05;4.18;;;15.50;99.90;;;;;;5049171;28;20037;-34
2022/08/21 03:05:43;;;;;;;5.70;3.47;;;15.50;99.90;;;;;;5048738;28;20490;-34
2022/08/21 03:08:11;;;;;;;6.90;3.78;;;15.60;99.90;;;;;;5048618;28;20045;-35
2022/08/21 03:10:40;;;;;;;7.40;3.30;;;15.50;99.90;;;;;;5048437;28;20036;-34
2022/08/21 03:13:07;;;;;;;5.93;3.22;;;15.50;99.90;;;;;;5049116;28;20066;-49
2022/08/21 03:15:33;;;;;;;8.07;4.22;;;15.50;99.90;;;;;;5048000;28;20450;-38
2022/08/21 03:17:59;;;;;;;4.47;2.85;;;15.50;99.90;;;;;;5046054;28;20053;-35
2022/08/21 03:20:28;;;;;;;6.25;3.75;;;15.50;99.90;;;;;;5050631;28;20139;-34
2022/08/21 03:22:54;;;;;;;8.50;3.83;;;15.50;99.90;;;;;;5047503;28;20509;-34
2022/08/21 03:25:25;;;;;;;6.68;3.50;;;15.50;99.90;;;;;;5046825;28;21767;-34
2022/08/21 03:27:51;;;;;;;6.15;3.70;;;15.40;99.90;;;;;;5048093;28;20041;-34
2022/08/21 03:30:19;;;;;;;6.90;3.90;;;15.40;99.90;;;;;;5045737;28;20040;-34
2022/08/21 03:32:45;;;;;;;5.75;3.58;;;15.40;99.90;;;;;;5047311;28;20058;-35
2022/08/21 03:35:12;;;;;;;7.50;4.28;;;15.30;99.90;;;;;;5045983;28;20067;-35
2022/08/21 03:37:38;;;;;;;8.60;4.32;;;15.30;99.90;;;;;;5050363;28;20040;-34
2022/08/21 03:40:06;;;;;;;7.07;4.05;;;15.30;99.90;;;;;;5049329;28;20167;-35
2022/08/21 03:42:31;;;;;;;5.55;3.67;;;15.30;99.90;;;;;;5050170;28;20033;-34
2022/08/21 03:44:57;;;;;;;7.15;3.95;;;15.30;99.90;;;;;;5050164;28;20110;-34
2022/08/21 03:47:23;;;;;;;9.20;3.55;;;15.20;99.90;;;;;;5052312;28;20386;-34
2022/08/21 03:49:49;;;;;;;8.32;3.67;;;15.30;99.90;;;;;;5049903;28;20047;-34
2022/08/21 03:52:15;;;;;;;8.60;3.70;;;15.20;99.90;;;;;;5047015;28;20041;-35
2022/08/21 03:54:41;;;;;;;8.65;3.85;;;15.20;99.90;;;;;;5050239;28;20041;-34
2022/08/21 03:57:08;;;;;;;8.88;3.83;;;15.10;99.90;;;;;;5047728;28;20119;-35
2022/08/21 03:59:34;;;;;;;5.65;2.90;;;15.10;99.90;;;;;;5050714;28;20060;-34
2022/08/21 04:02:02;;;;;;;6.93;3.40;;;15.00;99.90;;;;;;5044678;28;20154;-35
2022/08/21 04:04:29;;;;;;;6.10;3.17;;;15.00;99.90;;;;;;5050571;28;20093;-35
2022/08/21 04:06:56;;;;;;;5.63;3.03;;;15.00;99.90;;;;;;5049348;28;20041;-34
2022/08/21 04:09:22;;;;;;;4.53;3.03;;;15.00;99.90;;;;;;5049995;28;20037;-34
2022/08/21 04:11:48;;;;;;;4.18;2.53;;;15.00;99.90;;;;;;5046056;28;20091;-34
2022/08/21 04:14:14;;;;;;;5.88;3.47;;;14.90;99.90;;;;;;5048756;28;20044;-34
2022/08/21 04:16:41;;;;;;;5.00;2.90;;;14.90;99.90;;;;;;5048630;28;20048;-34
2022/08/21 04:19:08;;;;;;;5.35;3.05;;;14.90;99.90;;;;;;5049642;28;20222;-34
2022/08/21 04:21:35;;;;;;;5.22;3.03;;;14.90;99.90;;;;;;5049038;28;20064;-33
2022/08/21 04:24:01;;;;;;;6.70;2.55;;;14.80;99.90;;;;;;5049414;28;20047;-35
2022/08/21 04:26:27;;;;;;;4.82;3.05;;;14.80;99.90;;;;;;5046410;28;20045;-34
2022/08/21 04:28:53;;;;;;;5.22;2.95;;;14.80;99.90;;;;;;5048076;28;20033;-34
2022/08/21 04:31:18;;;;;;;5.60;2.65;;;14.80;99.90;;;;;;5046851;28;20040;-37
2022/08/21 04:33:44;;;;;;;5.88;2.63;;;14.80;99.90;;;;;;5042644;28;20403;-34
2022/08/21 04:36:11;;;;;;;3.78;2.47;;;14.80;99.90;;;;;;5046202;28;20045;-34
2022/08/21 04:38:37;;;;;;;3.45;2.42;;;14.80;99.90;;;;;;5043646;28;20110;-34
2022/08/21 04:41:04;;;;;;;4.78;2.67;;;14.70;99.90;;;;;;5046600;28;20518;-34
2022/08/21 04:43:30;;;;;;;7.28;2.97;;;14.70;99.90;;;;;;5044682;28;20095;-34
2022/08/21 04:45:56;;;;;;;5.60;2.60;;;14.70;99.90;;;;;;5047240;28;20474;-34
2022/08/21 04:48:25;;;;;;;5.30;2.67;;;14.60;99.90;;;;;;5043448;28;21500;-34
2022/08/21 04:50:57;;;;;;;4.28;2.20;;;14.60;99.90;;;;;;5043050;28;20068;-35
2022/08/21 04:53:30;;;;;;;4.77;2.70;;;14.60;99.90;;;;;;5045158;28;20033;-34
2022/08/21 04:55:56;;;;;;;4.82;2.90;;;14.60;99.90;;;;;;5046109;28;20505;-35
2022/08/21 04:58:25;;;;;;;4.97;2.63;;;14.60;99.90;;;;;;5049508;28;20029;-34
2022/08/21 05:00:55;;;;;;;5.70;2.50;;;14.60;99.90;;;;;;5042057;28;20098;-35
2022/08/21 05:03:22;;;;;;;4.63;2.35;;;14.60;99.90;;;;;;5047754;28;20111;-34
2022/08/21 05:05:49;;;;;;;5.80;2.60;;;14.70;99.90;;;;;;5049723;28;20079;-34
2022/08/21 05:08:19;;;;;;;5.03;2.55;;;14.70;99.90;;;;;;5044767;28;20041;-35
2022/08/21 05:10:44;;;;;;;5.38;2.80;;;14.70;99.90;;;;;;5048547;28;20044;-33
2022/08/21 05:13:14;;;;;;;6.05;2.58;;;14.80;99.90;;;;;;5041762;28;20308;-34
2022/08/21 05:15:40;;;;;;;5.53;2.47;;;14.80;99.90;;;;;;5047775;28;20047;-33
2022/08/21 05:18:06;;;;;;;7.55;3.08;;;14.90;99.90;;;;;;5047988;28;20057;-34
2022/08/21 05:20:36;;;;;;;6.75;2.65;;;14.90;99.90;;;;;;5047918;28;20045;-33
2022/08/21 05:23:10;;;;;;;5.35;2.90;;;14.90;99.90;;;;;;5047571;28;20029;-33
2022/08/21 05:25:36;;;;;;;6.97;2.78;;;14.90;99.90;;;;;;5049137;28;20132;-33
2022/08/21 05:28:02;;;;;;;6.78;2.92;;;15.00;99.90;;;;;;5047990;28;20116;-34
2022/08/21 05:30:27;;;;;;;5.90;3.13;;;15.00;99.90;;;;;;5046453;28;20033;-34
2022/08/21 05:32:58;;;;;;;7.90;2.90;;;15.00;99.90;;;;;;5048271;28;20033;-34
2022/08/21 05:35:24;;;;;;;5.30;2.88;;;15.10;99.90;;;;;;5049259;28;20041;-33
2022/08/21 05:37:50;;;;;;;5.85;3.83;;;15.10;99.90;;;;;;5047670;28;20068;-34
2022/08/21 05:40:15;;;;;;;5.05;3.00;;;15.10;99.90;;;;;;5043282;28;20079;-34
2022/08/21 05:42:41;;;;;;;5.63;3.17;;;15.10;99.90;;;;;;5046458;28;20486;-33
2022/08/21 05:45:07;;;;;;;8.68;2.88;;;15.20;99.90;;;;;;5048914;28;20040;-34
2022/08/21 05:47:33;;;;;;;6.63;3.13;;;15.20;99.90;;;;;;5048648;28;20037;-33
2022/08/21 05:49:58;;;;;;;6.40;2.65;;;15.20;99.90;;;;;;5047549;28;20033;-33
2022/08/21 05:52:24;;;;;;;10.02;3.53;;;15.20;99.90;;;;;;5043268;28;20059;-33
2022/08/21 05:54:53;;;;;;;6.13;3.15;;;15.30;99.90;;;;;;5047513;28;20056;-36
2022/08/21 05:57:19;;;;;;;8.13;3.45;;;15.40;99.90;;;;;;5044684;28;20048;-33
2022/08/21 05:59:45;;;;;;;8.43;3.15;;;15.40;99.90;;;;;;5048058;28;20041;-33
2022/08/21 06:02:11;;;;;;;5.43;2.78;;;15.40;99.90;;;;;;5045835;28;20091;-33
2022/08/21 06:04:39;;;;;;;4.53;2.95;;;15.50;99.90;;;;;;5047949;28;20043;-34
2022/08/21 06:07:06;;;;;;;10.20;3.47;;;15.50;99.90;;;;;;5045617;28;20068;-34
2022/08/21 06:09:32;;;;;;;7.70;3.60;;;15.60;99.90;;;;;;5048022;28;20040;-34
2022/08/21 06:11:58;;;;;;;7.22;3.00;;;15.60;99.90;;;;;;5044392;28;20041;-34
2022/08/21 06:14:23;;;;;;;6.30;3.28;;;15.60;99.90;;;;;;5043112;28;20052;-33
2022/08/21 06:16:49;;;;;;;6.88;3.38;;;15.70;99.90;;;;;;5043093;28;20040;-34
2022/08/21 06:19:15;;;;;;;9.70;3.63;;;15.80;99.90;;;;;;5042430;28;20385;-33
2022/08/21 06:21:40;;;;;;;8.15;3.20;;;15.80;99.90;;;;;;5044722;28;20118;-35
2022/08/21 06:24:06;;;;;;;6.07;2.83;;;15.90;99.90;;;;;;5044289;28;20029;-34
2022/08/21 06:26:32;;;;;;;6.72;3.22;;;15.90;99.90;;;;;;5048615;28;20029;-34
2022/08/21 06:28:58;;;;;;;5.55;3.05;;;16.00;99.90;;;;;;5047960;28;20189;-35
2022/08/21 06:31:27;;;;;;;6.85;3.20;;;16.10;99.90;;;;;;5047915;28;20053;-34
2022/08/21 06:33:53;;;;;;;7.72;3.17;;;16.20;99.90;;;;;;5044769;28;20502;-36
2022/08/21 06:36:23;;;;;;;6.65;3.20;;;16.20;99.90;;;;;;5042046;28;20032;-35
2022/08/21 06:38:48;;;;;;;7.70;2.83;;;16.30;99.90;;;;;;5041427;28;20068;-35
2022/08/21 06:41:14;;;;;;;6.63;3.17;;;16.30;99.90;;;;;;5041043;28;20510;-35
2022/08/21 06:43:40;;;;;;;8.13;3.95;;;16.40;99.90;;;;;;5043397;28;20616;-34
2022/08/21 06:46:07;;;;;;;4.57;2.03;;;16.40;99.90;;;;;;5046974;28;20091;-34
2022/08/21 06:48:33;;;;;;;4.80;2.20;;;16.60;99.90;;;;;;5044188;28;20441;-36
2022/08/21 06:51:00;;;;;;;5.47;2.65;;;16.80;99.90;;;;;;5047983;28;20094;-34
2022/08/21 06:53:26;;;;;;;5.45;2.60;;;17.10;99.90;;;;;;5047472;28;20040;-35
2022/08/21 06:55:52;;;;;;;7.07;1.95;;;17.20;99.90;;;;;;5040659;28;20516;-35
2022/08/21 06:58:19;;;;;;;3.85;1.90;;;17.40;99.90;;;;;;5047380;28;20048;-34
2022/08/21 07:00:47;;;;;;;6.82;2.42;;;17.50;99.90;;;;;;5042936;28;20098;-34
2022/08/21 07:03:37;;;;;;;7.68;2.75;;;17.70;99.90;;;;;;5045590;28;20060;-34
2022/08/21 07:06:07;;;;;;;5.93;1.92;;;17.80;99.90;;;;;;5046241;28;20044;-34
2022/08/21 07:08:33;;;;;;;9.75;2.67;;;17.90;99.90;;;;;;5047153;28;20120;-35
2022/08/21 07:11:03;;;;;;;6.00;1.90;;;18.00;99.90;;;;;;5044234;28;20047;-40
2022/08/21 07:13:29;;;;;;;6.20;2.70;;;18.10;99.90;;;;;;5047171;28;20048;-34
2022/08/21 07:15:55;;;;;;;4.97;1.80;;;18.10;99.90;;;;;;5037665;28;20465;-35
2022/08/21 07:18:21;;;;;;;8.90;2.90;;;18.20;99.90;;;;;;5043567;28;20053;-35
2022/08/21 07:20:47;;;;;;;10.18;3.03;;;18.30;99.90;;;;;;5042550;28;20048;-50
2022/08/21 07:23:38;;;;;;;7.10;2.42;;;18.40;99.90;;;;;;5046352;28;20044;-34
2022/08/21 07:26:04;;;;;;;3.53;1.55;;;18.50;99.90;;;;;;5037789;28;20106;-36
2022/08/21 07:28:30;;;;;;;3.70;1.73;;;18.60;99.90;;;;;;5045968;28;20059;-34
2022/08/21 07:30:58;;;;;;;7.75;1.98;;;18.70;99.90;;;;;;5043200;28;20037;-36
2022/08/21 07:33:26;;;;;;;4.97;1.58;;;18.90;99.90;;;;;;5043882;28;20486;-34
2022/08/21 07:35:52;;;;;;;4.18;1.15;;;19.00;99.90;;;;;;5044391;28;20499;-35
2022/08/21 07:38:18;;;;;;;4.80;1.33;;;19.00;99.90;;;;;;5037476;28;20045;-34
2022/08/21 07:40:46;;;;;;;7.70;1.42;;;19.10;99.90;;;;;;5040932;28;20040;-35
2022/08/21 07:43:11;;;;;;;5.20;1.65;;;19.20;99.90;;;;;;5043657;28;20479;-34
2022/08/21 07:45:37;;;;;;;4.30;1.10;;;19.30;99.90;;;;;;5045590;28;20029;-36
2022/08/21 07:48:04;;;;;;;7.88;1.85;;;19.30;99.90;;;;;;5040350;28;20061;-34
2022/08/21 07:50:30;;;;;;;4.82;1.40;;;19.40;99.90;;;;;;5045657;28;20514;-34
2022/08/21 07:52:56;;;;;;;5.20;1.15;;;19.40;99.90;;;;;;5047063;28;20151;-34
2022/08/21 07:55:22;;;;;;;2.65;0.82;;;19.50;99.30;;;;;;5046353;28;20127;-35
2022/08/21 07:57:49;;;;;;;3.97;1.17;;;19.60;98.40;;;;;;5046172;28;20075;-34
2022/08/21 08:00:19;;;;;;;6.05;1.15;;;19.70;97.80;;;;;;5047534;28;20041;-34
2022/08/21 08:02:49;;;;;;;5.47;0.95;;;19.70;97.70;;;;;;5045209;28;20166;-34
2022/08/21 08:05:16;;;;;;;4.82;0.90;;;19.80;97.90;;;;;;5047428;28;20119;-34
2022/08/21 08:07:42;;;;;;;5.93;1.23;;;19.90;97.40;;;;;;5043366;28;20044;-34
2022/08/21 08:10:09;;;;;;;5.00;1.20;;;19.90;97.40;;;;;;5049144;28;20037;-34
2022/08/21 08:12:39;;;;;;;2.90;0.85;;;20.00;97.40;;;;;;5043064;28;20044;-34
2022/08/21 08:15:09;;;;;;;5.47;0.85;;;20.10;97.40;;;;;;5045046;28;20041;-35
2022/08/21 08:17:37;;;;;;;7.25;1.33;;;20.10;97.30;;;;;;5047918;28;20072;-35
2022/08/21 08:20:03;;;;;;;4.95;1.20;;;20.20;96.80;;;;;;5044429;28;20049;-35
2022/08/21 08:22:29;;;;;;;4.95;1.30;;;20.30;97.00;;;;;;5044859;28;20041;-35
2022/08/21 08:24:56;;;;;;;4.18;1.15;;;20.30;96.70;;;;;;5046009;28;20029;-35
2022/08/21 08:27:21;;;;;;;4.80;1.23;;;20.20;96.40;;;;;;5044389;28;20612;-35
2022/08/21 08:29:47;;;;;;;9.90;1.42;;;20.30;96.70;;;;;;5045202;28;20025;-36
2022/08/21 08:32:14;;;;;;;6.22;1.30;;;20.40;96.50;;;;;;5040396;28;20040;-35
2022/08/21 08:34:39;;;;;;;6.43;1.38;;;20.50;96.10;;;;;;5046992;28;20037;-34
2022/08/21 08:37:08;;;;;;;4.93;1.42;;;20.50;95.50;;;;;;5042379;28;20052;-34
2022/08/21 08:39:34;;;;;;;3.10;1.02;;;20.60;95.20;;;;;;5043238;28;20399;-35
2022/08/21 08:42:13;;;;;;;7.68;1.15;;;20.60;95.20;;;;;;5043187;28;20040;-36
2022/08/21 08:44:43;;;;;;;4.90;1.70;;;20.70;95.20;;;;;;5045961;28;20029;-35
2022/08/21 08:47:12;;;;;;;7.15;1.42;;;20.90;95.00;;;;;;5045380;28;20037;-35
2022/08/21 08:49:53;;;;;;;4.18;1.50;;;20.90;94.60;;;;;;5043269;28;20048;-34
2022/08/21 08:52:34;;;;;;;6.43;1.55;;;20.90;94.70;;;;;;5043523;28;20728;-34
2022/08/21 08:55:06;;;;;;;4.57;1.57;;;20.90;95.20;;;;;;5038560;28;20470;-35
2022/08/21 08:57:33;;;;;;;6.10;1.63;;;21.00;95.80;;;;;;5047494;28;20102;-35
2022/08/21 09:00:02;;;;;;;11.82;1.58;;;21.10;95.30;;;;;;5047632;28;20040;-34
2022/08/21 09:02:28;;;;;;;6.45;2.03;;;21.10;95.00;;;;;;5049683;28;20041;-36
2022/08/21 09:04:55;;;;;;;5.28;1.83;;;21.20;95.20;;;;;;5047885;28;20482;-35
2022/08/21 09:07:39;;;;;;;9.02;2.17;;;21.30;95.60;;;;;;5048913;28;20127;-34
2022/08/21 09:10:11;;;;;;;5.50;1.65;;;21.50;95.80;;;;;;5049900;28;20028;-34
2022/08/21 09:12:48;;;;;;;7.57;2.33;;;21.60;95.50;;;;;;5049644;28;20521;-35
2022/08/21 09:15:23;;;;;;;7.38;2.00;;;21.80;95.40;;;;;;5045045;28;20041;-34
2022/08/21 09:18:13;;;;;;;7.25;2.17;;;22.00;94.80;;;;;;5047265;28;20498;-35
2022/08/21 09:20:56;;;;;;;9.27;1.95;;;22.10;94.60;;;;;;5045030;28;20037;-34
2022/08/21 09:23:42;;;;;;;7.80;1.90;;;22.00;94.50;;;;;;5047620;28;20593;-34
2022/08/21 09:26:12;;;;;;;13.02;1.75;;;21.90;95.10;;;;;;5049623;28;20044;-35
2022/08/21 09:28:38;;;;;;;10.63;2.15;;;21.80;96.00;;;;;;5046976;28;20041;-44
2022/08/21 09:31:08;;;;;;;8.95;1.92;;;21.80;96.10;;;;;;5046077;28;20043;-35
2022/08/21 09:33:33;;;;;;;8.75;1.77;;;21.90;95.90;;;;;;5050564;28;20461;-34
2022/08/21 09:35:59;;;;;;;9.90;1.90;;;22.10;95.60;;;;;;5047571;28;20044;-34
2022/08/21 09:38:29;;;;;;;5.03;1.60;;;22.30;95.20;;;;;;5048429;28;20397;-34
2022/08/21 09:41:08;;;;;;;9.10;1.88;;;22.50;94.30;;;;;;5047750;28;20045;-35
2022/08/21 09:43:35;;;;;;;9.05;1.90;;;22.60;93.80;;;;;;5049949;28;20029;-35
2022/08/21 09:46:10;;;;;;;8.32;1.27;;;22.50;93.60;;;;;;5044617;28;20044;-36
2022/08/21 09:48:59;;;;;;;10.38;1.48;;;22.30;93.90;;;;;;5048621;28;20394;-35
2022/08/21 09:51:31;;;;;;;6.78;1.58;;;22.10;94.90;;;;;;5049836;28;20110;-35
2022/08/21 09:54:06;;;;;;;6.88;1.25;;;22.00;95.10;;;;;;5050494;28;20037;-35
2022/08/21 09:59:30;;;;;;;7.63;1.38;;;21.80;96.00;;;;;;5045944;28;20052;-35
2022/08/21 10:01:57;;;;;;;10.40;2.40;;;21.80;96.40;;;;;;5049365;28;20033;-35
2022/08/21 10:04:28;;;;;;;10.70;2.05;;;21.90;95.70;;;;;;5044549;28;20029;-35
2022/08/21 10:06:54;;;;;;;6.68;1.60;;;22.10;95.40;;;;;;5047516;28;20043;-35
2022/08/21 10:09:21;;;;;;;5.55;1.35;;;22.20;95.10;;;;;;5048587;28;20171;-35
2022/08/21 10:12:22;;;;;;;5.70;1.30;;;22.20;94.80;;;;;;5043487;28;20494;-35
2022/08/21 10:15:12;;;;;;;6.55;1.30;;;22.10;94.90;;;;;;5042420;28;20491;-35
2022/08/21 10:17:47;;;;;;;6.43;1.40;;;22.20;94.70;;;;;;5049710;28;20045;-35
2022/08/21 10:21:05;;;;;;;7.47;1.33;;;22.50;94.20;;;;;;5039954;28;20053;-35
2022/08/21 10:23:40;;;;;;;6.60;1.48;;;22.70;93.30;;;;;;5020419;28;20632;-35
2022/08/21 10:26:12;;;;;;;6.18;1.30;;;23.00;93.00;;;;;;5042202;28;20048;-35
2022/08/21 10:29:08;;;;;;;9.90;1.40;;;23.20;91.20;;;;;;5049574;28;20037;-35
2022/08/21 10:31:54;;;;;;;4.97;1.30;;;23.30;91.00;;;;;;5046375;28;20120;-35
2022/08/21 10:34:40;;;;;;;7.82;1.45;;;23.30;90.20;;;;;;5046483;28;21347;-35
2022/08/21 10:37:21;;;;;;;6.00;1.25;;;23.40;88.10;;;;;;5046209;28;20033;-35
2022/08/21 10:39:58;;;;;;;7.28;1.35;;;23.50;86.20;;;;;;5048878;28;20041;-35
2022/08/21 10:42:37;;;;;;;5.95;1.20;;;23.60;86.20;;;;;;5045421;28;20073;-36
2022/08/21 10:45:11;;;;;;;5.60;0.98;;;23.70;86.20;;;;;;5048675;28;20470;-36
2022/08/21 10:47:52;;;;;;;6.45;1.65;;;23.80;86.80;;;;;;5044875;28;20091;-35
2022/08/21 10:50:30;;;;;;;5.28;2.15;;;24.00;86.40;;;;;;5040098;28;20033;-35
2022/08/21 10:53:24;;;;;;;8.05;1.63;;;24.00;86.10;;;;;;5047788;28;20059;-35
2022/08/21 10:55:50;;;;;;;8.82;1.77;;;24.00;86.90;;;;;;5037530;28;20483;-35
2022/08/21 10:58:29;;;;;;;6.60;1.65;;;24.10;86.50;;;;;;5047201;28;20052;-35
2022/08/21 11:01:19;;;;;;;7.28;2.05;;;24.30;85.70;;;;;;5049455;28;20429;-35
2022/08/21 11:04:09;;;;;;;6.85;2.13;;;24.40;84.70;;;;;;5044714;28;20562;-35
2022/08/21 11:06:39;;;;;;;5.38;1.80;;;24.50;84.20;;;;;;5062619;28;20521;-35
2022/08/21 11:09:19;;;;;;;5.32;1.73;;;24.50;83.80;;;;;;5048778;28;20513;-35
2022/08/21 11:11:56;;;;;;;7.72;1.75;;;24.60;83.80;;;;;;5045266;28;20441;-35
2022/08/21 11:14:30;;;;;;;5.70;1.63;;;24.70;83.40;;;;;;5042779;28;20048;-35
2022/08/21 11:17:07;;;;;;;9.65;2.15;;;24.80;80.70;;;;;;5049057;28;20033;-35
2022/08/21 11:20:03;;;;;;;6.53;1.92;;;24.90;82.40;;;;;;5042279;28;20061;-35
2022/08/21 11:22:56;;;;;;;7.22;1.20;;;24.90;81.00;;;;;;5050507;28;20502;-36
2022/08/21 11:25:35;;;;;;;7.32;1.25;;;24.90;80.30;;;;;;5052361;28;20062;-35
2022/08/21 11:28:15;;;;;;;4.22;1.15;;;24.80;79.40;;;;;;5051703;28;20040;-37
2022/08/21 11:31:23;;;;;;;6.55;1.10;;;24.60;79.40;;;;;;5049073;28;20044;-36
2022/08/21 11:34:05;;;;;;;6.18;1.20;;;24.40;79.60;;;;;;5053701;28;20367;-36
2022/08/21 11:36:51;;;;;;;3.53;1.17;;;24.30;80.70;;;;;;5050882;28;20071;-35
2022/08/21 11:39:30;;;;;;;4.95;1.25;;;24.50;79.70;;;;;;5051854;28;20055;-35
2022/08/21 11:42:17;;;;;;;6.97;1.40;;;24.50;79.10;;;;;;5049592;28;20628;-35
2022/08/21 11:44:54;;;;;;;7.07;2.03;;;24.60;79.80;;;;;;5052175;28;20486;-35
2022/08/21 11:47:29;;;;;;;6.25;1.42;;;24.70;80.00;;;;;;5048160;28;21634;-35
2022/08/21 11:50:09;;;;;;;8.20;1.70;;;24.70;79.00;;;;;;5050592;28;20033;-35
2022/08/21 11:52:42;;;;;;;4.57;1.33;;;24.70;79.10;;;;;;5046852;28;20390;-35
2022/08/21 11:55:35;;;;;;;10.60;1.70;;;24.60;79.50;;;;;;5049998;28;20398;-36
2022/08/21 11:58:16;;;;;;;7.60;1.50;;;24.60;79.40;;;;;;5048059;28;20110;-36
2022/08/21 12:00:52;;;;;;;8.68;1.83;;;24.50;79.40;;;;;;5045209;28;20080;-35
2022/08/21 12:03:32;;;;;;;3.03;1.42;;;24.60;80.80;;;;;;5045569;28;20116;-36
2022/08/21 12:06:05;;;;;;;5.78;1.42;;;24.70;80.00;;;;;;5049940;28;20047;-35
2022/08/21 12:08:37;;;;;;;5.00;1.38;;;24.80;78.30;;;;;;5051245;28;20491;-35
2022/08/21 12:11:18;;;;;;;5.50;1.60;;;24.80;78.10;;;;;;5044513;28;20060;-36
2022/08/21 12:14:04;;;;;;;4.50;1.30;;;24.70;73.70;;;;;;5042651;28;20049;-36
2022/08/21 12:16:33;;;;;;;5.95;1.67;;;24.40;76.10;;;;;;5051875;28;20044;-35
2022/08/21 12:19:09;;;;;;;4.72;1.40;;;24.20;78.90;;;;;;5047179;28;20061;-36
2022/08/21 12:21:50;;;;;;;5.28;1.38;;;24.10;78.90;;;;;;5051196;28;20119;-39
2022/08/21 12:24:38;;;;;;;7.85;1.40;;;24.10;79.80;;;;;;5061561;28;20056;-37
2022/08/21 12:27:26;;;;;;;7.20;1.55;;;24.20;80.50;;;;;;5049910;28;20049;-36
2022/08/21 12:30:02;;;;;;;7.40;1.67;;;24.20;80.20;;;;;;5050429;28;20560;-35
2022/08/21 12:32:53;;;;;;;4.20;1.40;;;24.20;80.80;;;;;;5047576;28;20124;-35
2022/08/21 12:35:25;;;;;;;6.95;1.30;;;24.20;82.10;;;;;;5049716;28;20067;-36
2022/08/21 12:38:01;;;;;;;6.70;1.40;;;24.10;82.40;;;;;;5052238;28;20095;-35
2022/08/21 12:40:31;;;;;;;5.13;1.40;;;24.20;81.90;;;;;;5049424;28;20394;-37
2022/08/21 12:43:00;;;;;;;7.88;1.55;;;24.20;82.90;;;;;;5046189;28;20079;-35
2022/08/21 12:45:28;;;;;;;5.82;1.38;;;24.20;84.50;;;;;;5048446;28;20072;-36
2022/08/21 12:48:04;;;;;;;5.10;1.30;;;24.20;83.20;;;;;;5051180;28;20041;-36
2022/08/21 12:50:45;;;;;;;7.32;1.40;;;24.20;83.60;;;;;;5051403;28;20029;-35
2022/08/21 12:53:51;;;;;;;4.00;1.23;;;24.20;83.10;;;;;;5050788;28;20512;-35
2022/08/21 12:56:25;;;;;;;6.97;1.73;;;24.50;83.20;;;;;;5050984;28;20071;-35
2022/08/21 12:58:57;;;;;;;4.65;1.30;;;24.90;81.00;;;;;;5045849;28;20033;-35
2022/08/21 13:01:26;;;;;;;7.97;1.58;;;25.40;79.30;;;;;;5048169;28;20033;-36
2022/08/21 13:03:55;;;;;;;5.38;1.38;;;25.80;76.60;;;;;;5043322;28;20040;-36
2022/08/21 13:06:23;;;;;;;3.65;1.30;;;26.00;74.10;;;;;;5046406;28;20545;-35